ěÝzenÝ letovÚho provozu ╚eskÚ republiky
Letiste: LKCV Aktualizace: 25.05.2024 06:59:38  UTC
 METAR LKCV 25.05. 07:00 ...
METAR LKCV 250700Z VRB02KT 9999 FEW019 SCT100 18/15 Q1018 NOSIG RMK BLU BLU=
 TAF LKCV 25.05. 05:00 ...
TAF LKCV 250500Z 2506/2606 VRB02KT CAVOK      TEMPO 2509/2521 15008KT 7000 SHRA BKN025TCU      PROB40 TEMPO 2510/2518 15015KT 5000 TSRA BKN015CB=